Alton, Maine
Current Conditions -  °F | °C
As of 6:53 PM on Thursday 18 Dec 2014 (Local Time) from KBGR Reporting Station
Broken Clouds Broken Clouds  
Wind Chill: -6°   Ceiling: 11000
Heat Index: -1°   Visibility: 10mi
Dew Point: -4°   Wind: 12mph
Humidity: 82%   Direction: 310°NW
Pressure: 29.7"   Gusts: NA
Location:  45.0236°N, 68.7394°W
Report Text: KBGR 182353Z 31010KT 10SM FEW037 BKN110 M01/M04 A2970 RMK AO2 SLP061 4/002 60000 T10111039 10006 21011 53017
Loading
Personal Weather Stations






























Interactive Weather Map New forecast layout! Learn more

10-Day Weather Forecast

Advertisements
Track Severe Weather on mobile